Time;durP1;ratioP1;P1;durP2;ratioP2;P2;SDS_P1;SDS_P2;PMS_P1;PMS_P2;Temp;Humidity;BMP_temperature;BMP_pressure;BME280_temperature;BME280_humidity;BME280_pressure;Samples;Min_cycle;Max_cycle;Signal;HPM_P1;HPM_P2
2022/01/01 00:02:13;;;;;;;;;;;10.40;99.90;;;;;;5092957;28;20044;-80
2022/01/01 00:04:40;;;;;;;70.20;31.40;;;10.40;99.90;;;;;;5092581;28;19927;-80
2022/01/01 00:07:06;;;;;;;67.85;30.67;;;10.50;99.90;;;;;;5075292;28;20165;-80
2022/01/01 00:09:32;;;;;;;73.03;26.75;;;10.50;99.90;;;;;;5092637;28;20339;-80
2022/01/01 00:11:57;;;;;;;68.25;27.15;;;10.50;99.90;;;;;;5109093;28;20044;-79
2022/01/01 00:14:23;;;;;;;68.53;27.92;;;10.50;99.90;;;;;;5109464;28;20039;-80
2022/01/01 00:16:49;;;;;;;68.47;26.87;;;10.50;99.90;;;;;;5091827;28;20040;-80
2022/01/01 00:19:14;;;;;;;57.78;24.10;;;10.50;99.90;;;;;;5092082;28;20740;-79
2022/01/01 00:21:41;;;;;;;55.45;22.05;;;10.50;99.90;;;;;;5109073;28;20046;-79
2022/01/01 00:24:07;;;;;;;54.65;22.30;;;10.40;99.90;;;;;;5091725;28;20131;-79
2022/01/01 00:26:33;;;;;;;70.55;24.77;;;10.50;99.90;;;;;;5109768;28;20118;-80
2022/01/01 00:28:58;;;;;;;62.97;24.73;;;10.50;99.90;;;;;;5109104;28;20126;-79
2022/01/01 00:31:25;;;;;;;71.22;27.55;;;10.60;99.90;;;;;;5108950;28;20078;-80
2022/01/01 00:33:51;;;;;;;80.88;33.45;;;10.50;99.90;;;;;;5092147;28;20044;-80
2022/01/01 00:36:16;;;;;;;77.45;32.45;;;10.50;99.90;;;;;;5109153;28;20543;-79
2022/01/01 00:38:42;;;;;;;78.60;34.50;;;10.50;99.90;;;;;;5092187;28;20421;-80
2022/01/01 00:41:08;;;;;;;87.05;35.60;;;10.60;99.90;;;;;;5108510;28;20149;-79
2022/01/01 00:43:34;;;;;;;83.18;35.90;;;10.60;99.90;;;;;;5109250;28;20144;-80
2022/01/01 00:46:00;;;;;;;84.20;35.00;;;10.50;99.90;;;;;;5074712;28;20032;-80
2022/01/01 00:48:26;;;;;;;88.93;37.28;;;10.50;99.90;;;;;;5074717;28;20039;-80
2022/01/01 00:50:51;;;;;;;80.25;34.20;;;10.50;99.90;;;;;;5075343;28;20071;-78
2022/01/01 00:53:17;;;;;;;78.93;34.40;;;10.90;99.90;;;;;;5091714;28;20039;-79
2022/01/01 00:55:43;;;;;;;81.47;32.72;;;10.60;99.90;;;;;;5092296;28;20365;-79
2022/01/01 00:58:09;;;;;;;71.68;30.08;;;10.50;99.90;;;;;;5108452;28;20032;-79
2022/01/01 01:00:35;;;;;;;64.97;25.30;;;10.50;99.90;;;;;;5091651;28;20031;-80
2022/01/01 01:03:06;;;;;;;64.20;25.42;;;10.60;99.90;;;;;;5108179;28;20442;-79
2022/01/01 01:05:32;;;;;;;62.45;26.25;;;10.60;99.90;;;;;;5092064;28;20040;-79
2022/01/01 01:07:57;;;;;;;64.47;24.77;;;11.20;99.90;;;;;;5108552;28;20085;-79
2022/01/01 01:10:23;;;;;;;63.73;25.03;;;10.50;99.90;;;;;;5108501;28;20281;-79
2022/01/01 01:12:49;;;;;;;72.68;25.17;;;10.40;99.90;;;;;;5057973;28;20281;-79
2022/01/01 01:15:18;;;;;;;61.17;23.05;;;10.30;99.90;;;;;;5058246;28;20039;-79
2022/01/01 01:17:48;;;;;;;64.93;20.80;;;10.30;99.90;;;;;;5091483;28;20043;-79
2022/01/01 01:20:15;;;;;;;51.35;20.13;;;10.20;99.90;;;;;;5074840;28;20434;-79
2022/01/01 01:22:41;;;;;;;57.75;20.90;;;10.30;99.90;;;;;;5091381;28;20070;-79
2022/01/01 01:25:08;;;;;;;58.90;20.63;;;10.30;99.90;;;;;;5090969;28;20499;-79
2022/01/01 01:27:35;;;;;;;66.55;21.10;;;10.20;99.90;;;;;;5074423;28;20039;-79
2022/01/01 01:30:08;;;;;;;61.67;21.77;;;10.10;99.90;;;;;;5090897;28;20047;-79
2022/01/01 01:32:35;;;;;;;64.40;21.17;;;10.10;99.90;;;;;;5091267;28;20040;-79
2022/01/01 01:35:00;;;;;;;;;;;10.10;99.90;;;;;;5091614;28;20042;-80
2022/01/01 01:37:28;;;;;;;57.20;21.38;;;10.00;99.90;;;;;;5091576;28;19915;-80
2022/01/01 01:39:55;;;;;;;67.65;22.83;;;10.00;99.90;;;;;;5091470;28;20570;-79
2022/01/01 01:42:22;;;;;;;63.85;21.02;;;10.20;99.90;;;;;;5091273;28;20110;-80
2022/01/01 01:44:51;;;;;;;67.22;23.13;;;10.00;99.90;;;;;;5091413;28;20035;-79
2022/01/01 01:47:27;;;;;;;70.05;22.77;;;10.00;99.90;;;;;;5091153;28;20048;-80
2022/01/01 01:49:53;;;;;;;68.32;22.10;;;10.00;99.90;;;;;;5090671;28;20050;-78
2022/01/01 01:52:19;;;;;;;67.45;22.38;;;10.10;99.90;;;;;;5091104;28;20043;-80
2022/01/01 01:54:46;;;;;;;75.57;23.85;;;10.00;99.90;;;;;;5091202;28;20074;-80
2022/01/01 01:57:12;;;;;;;82.50;25.58;;;10.10;99.90;;;;;;5090842;28;20510;-79
2022/01/01 01:59:38;;;;;;;79.30;24.58;;;10.10;99.90;;;;;;5094853;28;20048;-79
2022/01/01 02:02:04;;;;;;;70.47;26.33;;;10.10;99.90;;;;;;5094717;28;20130;-79
2022/01/01 02:04:30;;;;;;;82.30;27.23;;;10.10;99.90;;;;;;5078295;28;20186;-79
2022/01/01 02:06:55;;;;;;;85.57;29.52;;;10.10;99.90;;;;;;5111849;28;20127;-80
2022/01/01 02:09:22;;;;;;;88.70;30.17;;;10.20;99.90;;;;;;5094885;28;20035;-80
2022/01/01 02:11:48;;;;;;;83.90;28.42;;;10.20;99.90;;;;;;5078434;28;20126;-80
2022/01/01 02:14:35;;;;;;;88.65;31.27;;;10.20;99.90;;;;;;5077961;28;20127;-79
2022/01/01 02:19:28;;;;;;;86.53;33.33;;;10.20;99.90;;;;;;5094679;28;20047;-79
2022/01/01 02:22:00;;;;;;;107.22;36.25;;;10.30;99.90;;;;;;5111410;28;20513;-79
2022/01/01 02:24:26;;;;;;;109.22;37.55;;;10.30;99.90;;;;;;5094141;28;20086;-79
2022/01/01 02:26:53;;;;;;;99.30;34.97;;;10.30;99.90;;;;;;5094607;28;20161;-79
2022/01/01 02:29:19;;;;;;;98.05;37.55;;;10.30;99.90;;;;;;5094861;28;20035;-79
2022/01/01 02:31:45;;;;;;;102.82;37.30;;;10.30;99.90;;;;;;5094933;28;20039;-79
2022/01/01 02:34:11;;;;;;;101.03;36.33;;;10.30;99.90;;;;;;5111003;28;20047;-79
2022/01/01 02:36:42;;;;;;;96.00;35.05;;;10.40;99.90;;;;;;5077662;28;20179;-79
2022/01/01 02:39:19;;;;;;;93.15;34.05;;;10.60;99.90;;;;;;5093869;28;20050;-80
2022/01/01 02:41:47;;;;;;;99.82;32.83;;;10.40;99.90;;;;;;5094439;28;20043;-80
2022/01/01 02:44:13;;;;;;;95.43;33.72;;;10.40;99.90;;;;;;5110943;28;21091;-79
2022/01/01 02:46:39;;;;;;;101.55;33.88;;;10.50;99.90;;;;;;5077932;28;20040;-80
2022/01/01 02:49:05;;;;;;;84.93;29.75;;;10.50;99.90;;;;;;5094344;28;20382;-79
2022/01/01 02:51:32;;;;;;;77.20;30.25;;;10.50;99.90;;;;;;5093900;28;20047;-80
2022/01/01 02:53:58;;;;;;;95.20;29.75;;;10.50;99.90;;;;;;5093991;28;20046;-80
2022/01/01 02:56:24;;;;;;;77.57;28.60;;;10.40;99.90;;;;;;5077082;28;20126;-80
2022/01/01 02:58:51;;;;;;;81.43;28.23;;;10.40;99.90;;;;;;5094148;28;20040;-80
2022/01/01 03:01:17;;;;;;;84.97;28.67;;;10.50;99.90;;;;;;5093070;28;20127;-79
2022/01/01 03:03:43;;;;;;;;;;;10.40;99.90;;;;;;5077367;28;20035;-79
2022/01/01 03:06:09;;;;;;;83.25;30.42;;;10.40;99.90;;;;;;5076237;28;19915;-79
2022/01/01 03:08:35;;;;;;;74.32;28.88;;;10.40;99.90;;;;;;5093751;28;20131;-79
2022/01/01 03:11:05;;;;;;;85.15;30.92;;;10.40;99.90;;;;;;5092433;28;20126;-79
2022/01/01 03:13:31;;;;;;;86.97;33.10;;;10.50;99.90;;;;;;5076635;28;20034;-79
2022/01/01 03:15:57;;;;;;;88.93;32.60;;;10.50;99.90;;;;;;5093013;28;20036;-79
2022/01/01 03:18:22;;;;;;;103.75;37.38;;;10.50;99.90;;;;;;5077025;28;20104;-79
2022/01/01 03:20:48;;;;;;;94.95;36.45;;;10.50;99.90;;;;;;5093289;28;20040;-79
2022/01/01 03:23:14;;;;;;;101.45;36.17;;;10.50;99.90;;;;;;5092552;28;20503;-79
2022/01/01 03:25:40;;;;;;;94.85;37.97;;;10.50;99.90;;;;;;5110267;28;20044;-79
2022/01/01 03:28:06;;;;;;;92.20;34.22;;;10.50;99.90;;;;;;5076084;28;20399;-80
2022/01/01 03:30:32;;;;;;;93.32;35.08;;;10.40;99.90;;;;;;5076993;28;20135;-79
2022/01/01 03:32:58;;;;;;;94.82;35.78;;;10.40;99.90;;;;;;5075761;28;20047;-79
2022/01/01 03:35:24;;;;;;;88.93;34.03;;;10.40;99.90;;;;;;5093166;28;20039;-79
2022/01/01 03:37:50;;;;;;;90.07;32.40;;;10.40;99.90;;;;;;5093013;28;20086;-80
2022/01/01 03:40:16;;;;;;;89.57;31.83;;;10.40;99.90;;;;;;5092824;28;20079;-79
2022/01/01 03:42:42;;;;;;;84.88;30.95;;;10.40;99.90;;;;;;5093223;28;21030;-79
2022/01/01 03:45:08;;;;;;;86.05;30.80;;;10.40;99.90;;;;;;5092335;28;20031;-79
2022/01/01 03:47:34;;;;;;;;;;;10.50;99.90;;;;;;5076722;28;20122;-79
2022/01/01 03:50:03;;;;;;;79.75;29.27;;;10.40;99.90;;;;;;5092884;28;19922;-80
2022/01/01 03:52:28;;;;;;;88.30;30.95;;;10.50;99.90;;;;;;5093132;28;20040;-79
2022/01/01 03:54:54;;;;;;;82.85;28.40;;;10.40;99.90;;;;;;5093231;28;20055;-80
2022/01/01 03:57:21;;;;;;;76.57;27.03;;;10.40;99.90;;;;;;5109322;28;20150;-79
2022/01/01 03:59:47;;;;;;;;;;;10.50;99.90;;;;;;5076162;28;20288;-79
2022/01/01 04:02:13;;;;;;;79.65;25.83;;;10.50;99.90;;;;;;5091812;28;19919;-79
2022/01/01 04:04:39;;;;;;;79.80;25.60;;;10.50;99.90;;;;;;5092541;28;20109;-80
2022/01/01 04:07:05;;;;;;;80.63;26.50;;;10.50;99.90;;;;;;5075467;28;20036;-79
2022/01/01 04:09:30;;;;;;;77.15;25.58;;;10.50;99.90;;;;;;5092334;28;20035;-80
2022/01/01 04:11:56;;;;;;;74.70;27.10;;;10.40;99.90;;;;;;5092803;28;20047;-79
2022/01/01 04:14:22;;;;;;;77.33;28.37;;;10.40;99.90;;;;;;5074792;28;20067;-79
2022/01/01 04:16:50;;;;;;;80.80;28.10;;;10.40;99.90;;;;;;5109346;28;20357;-79
2022/01/01 04:19:15;;;;;;;66.07;26.73;;;10.30;99.90;;;;;;5091491;28;20285;-80
2022/01/01 04:21:42;;;;;;;84.37;27.43;;;10.40;99.90;;;;;;5091518;28;20039;-79
2022/01/01 04:24:07;;;;;;;78.03;30.05;;;10.40;99.90;;;;;;5108524;28;20112;-79
2022/01/01 04:26:33;;;;;;;78.85;29.58;;;10.40;99.90;;;;;;5091655;28;20122;-80
2022/01/01 04:28:59;;;;;;;78.00;30.05;;;10.50;99.90;;;;;;5075361;28;20131;-79
2022/01/01 04:31:25;;;;;;;72.45;28.23;;;10.40;99.90;;;;;;5074548;28;20043;-79
2022/01/01 04:33:51;;;;;;;88.28;31.30;;;10.60;99.90;;;;;;5092023;28;20058;-79
2022/01/01 04:36:17;;;;;;;83.30;30.98;;;10.40;99.90;;;;;;5091694;28;20039;-79
2022/01/01 04:38:44;;;;;;;87.93;31.33;;;10.40;99.90;;;;;;5092261;28;20046;-79
2022/01/01 04:41:12;;;;;;;75.90;30.15;;;10.40;99.90;;;;;;5074452;28;20130;-79
2022/01/01 04:43:40;;;;;;;73.53;30.38;;;10.40;99.90;;;;;;5091524;28;20070;-78
2022/01/01 04:46:06;;;;;;;90.10;32.33;;;10.40;99.90;;;;;;5091196;28;20053;-79
2022/01/01 04:48:36;;;;;;;81.68;30.33;;;10.40;99.90;;;;;;5075270;28;20062;-79
2022/01/01 04:51:07;;;;;;;67.78;27.63;;;10.40;99.90;;;;;;5091477;28;20491;-79
2022/01/01 04:53:39;;;;;;;80.03;29.98;;;10.40;99.90;;;;;;5075573;28;20045;-79
2022/01/01 04:56:07;;;;;;;82.43;31.05;;;10.50;99.90;;;;;;5108098;28;20122;-79
2022/01/01 04:58:34;;;;;;;87.25;34.15;;;10.50;99.90;;;;;;5091567;28;20043;-79
2022/01/01 05:01:00;;;;;;;93.35;34.63;;;10.50;99.90;;;;;;5091919;28;20388;-79
2022/01/01 05:03:25;;;;;;;99.75;38.45;;;10.50;99.90;;;;;;5073908;28;20043;-79
2022/01/01 05:05:51;;;;;;;97.43;37.88;;;10.40;99.90;;;;;;5091837;28;20066;-79
2022/01/01 05:08:17;;;;;;;107.60;43.05;;;10.80;99.90;;;;;;5091274;28;20118;-79
2022/01/01 05:10:42;;;;;;;109.38;45.20;;;10.80;99.90;;;;;;5091618;28;20028;-79
2022/01/01 05:13:08;;;;;;;104.35;45.40;;;10.50;99.90;;;;;;5074285;28;20538;-79
2022/01/01 05:15:34;;;;;;;106.50;46.35;;;10.50;99.90;;;;;;5091546;28;20047;-79
2022/01/01 05:18:02;;;;;;;112.95;46.70;;;10.50;99.90;;;;;;5091395;28;20071;-79
2022/01/01 05:20:28;;;;;;;116.68;48.47;;;10.50;99.90;;;;;;5074043;28;20036;-80
2022/01/01 05:22:54;;;;;;;122.60;50.67;;;10.50;99.90;;;;;;5074233;28;20100;-79
2022/01/01 05:25:19;;;;;;;125.95;51.63;;;10.50;99.90;;;;;;5090696;28;20050;-79
2022/01/01 05:27:45;;;;;;;122.15;51.70;;;10.50;99.90;;;;;;5091375;28;20040;-79
2022/01/01 05:30:11;;;;;;;119.87;50.30;;;10.50;99.90;;;;;;5073738;28;20403;-79
2022/01/01 05:32:37;;;;;;;118.78;49.58;;;10.60;99.90;;;;;;5090742;28;20281;-79
2022/01/01 05:35:04;;;;;;;124.70;50.33;;;10.60;99.90;;;;;;5090869;28;20133;-79
2022/01/01 05:37:29;;;;;;;113.60;46.65;;;10.60;99.90;;;;;;5091202;28;20120;-80
2022/01/01 05:39:55;;;;;;;121.68;47.67;;;10.60;99.90;;;;;;5075126;28;20513;-80
2022/01/01 05:42:21;;;;;;;104.88;45.25;;;10.60;99.90;;;;;;5056775;28;20028;-80
2022/01/01 05:44:47;;;;;;;110.45;45.40;;;10.60;99.90;;;;;;5108207;28;20062;-80
2022/01/01 05:47:12;;;;;;;115.97;45.15;;;10.50;99.90;;;;;;5090749;28;20144;-80
2022/01/01 05:49:38;;;;;;;108.72;43.47;;;10.60;99.90;;;;;;5091156;28;20036;-80
2022/01/01 05:52:04;;;;;;;113.07;44.55;;;10.70;99.90;;;;;;5091554;28;20513;-80
2022/01/01 05:54:30;;;;;;;112.50;44.20;;;10.50;99.90;;;;;;5073978;28;20092;-80
2022/01/01 05:56:56;;;;;;;110.95;42.72;;;10.50;99.90;;;;;;5074443;28;20035;-80
2022/01/01 05:59:21;;;;;;;109.68;42.45;;;10.40;99.90;;;;;;5073692;28;20047;-80
2022/01/01 06:01:47;;;;;;;108.20;39.20;;;10.50;99.90;;;;;;5091641;28;20044;-80
2022/01/01 06:04:13;;;;;;;107.07;37.67;;;10.50;99.90;;;;;;5090930;28;20282;-80
2022/01/01 06:06:38;;;;;;;102.25;37.20;;;10.50;99.90;;;;;;5108211;28;20035;-79
2022/01/01 06:09:04;;;;;;;78.40;28.60;;;10.40;99.90;;;;;;5074548;28;20047;-80
2022/01/01 06:11:30;;;;;;;87.32;29.98;;;10.50;99.90;;;;;;5057963;28;20432;-80
2022/01/01 06:13:56;;;;;;;79.90;27.38;;;10.50;99.90;;;;;;5091086;28;20126;-79
2022/01/01 06:16:21;;;;;;;74.72;25.27;;;10.50;99.90;;;;;;5090612;28;20399;-79
2022/01/01 06:18:47;;;;;;;82.47;25.57;;;10.50;99.90;;;;;;5090824;28;20483;-80
2022/01/01 06:21:13;;;;;;;104.05;28.35;;;10.50;99.90;;;;;;5107182;28;20864;-79
2022/01/01 06:23:40;;;;;;;91.47;27.95;;;10.50;99.90;;;;;;5107680;28;20055;-79
2022/01/01 06:26:05;;;;;;;;;;;10.50;99.90;;;;;;5074817;28;20035;-80
2022/01/01 06:28:31;;;;;;;103.93;27.92;;;10.40;99.90;;;;;;5089909;28;19934;-79
2022/01/01 06:30:57;;;;;;;95.10;27.85;;;10.40;99.90;;;;;;5090778;28;20044;-79
2022/01/01 06:33:23;;;;;;;86.90;24.90;;;10.40;99.90;;;;;;5090229;28;20122;-80
2022/01/01 06:35:49;;;;;;;79.93;24.23;;;10.50;99.90;;;;;;5090854;28;20040;-79
2022/01/01 06:38:16;;;;;;;84.30;25.58;;;10.50;99.90;;;;;;5073366;28;20042;-80
2022/01/01 06:40:43;;;;;;;75.70;24.30;;;10.50;99.90;;;;;;5073704;28;20044;-79
2022/01/01 06:43:11;;;;;;;73.22;23.45;;;10.50;99.90;;;;;;5107081;28;20123;-80
2022/01/01 06:45:38;;;;;;;76.47;23.27;;;10.50;99.90;;;;;;5092271;28;20154;-79
2022/01/01 06:48:04;;;;;;;77.20;22.83;;;10.50;99.90;;;;;;5094499;28;20396;-79
2022/01/01 06:50:30;;;;;;;73.65;23.08;;;10.60;99.90;;;;;;5093891;28;20641;-80
2022/01/01 06:52:56;;;;;;;72.13;22.45;;;10.60;99.90;;;;;;5077467;28;20757;-79
2022/01/01 06:55:21;;;;;;;73.82;23.45;;;10.60;99.90;;;;;;5093474;28;20047;-80
2022/01/01 06:57:47;;;;;;;89.30;22.88;;;10.50;99.90;;;;;;5110787;28;20035;-80
2022/01/01 07:00:14;;;;;;;67.78;21.17;;;10.60;99.90;;;;;;5110678;28;20138;-79
2022/01/01 07:02:43;;;;;;;63.28;20.77;;;10.60;99.90;;;;;;5093747;28;20044;-80
2022/01/01 07:05:10;;;;;;;66.45;21.98;;;10.60;99.90;;;;;;5094096;28;20138;-79
2022/01/01 07:07:36;;;;;;;68.18;22.17;;;10.70;99.90;;;;;;5076963;28;20437;-79
2022/01/01 07:10:04;;;;;;;74.00;22.30;;;10.70;99.90;;;;;;5093575;28;20036;-79
2022/01/01 07:12:29;;;;;;;74.93;23.40;;;10.70;99.90;;;;;;5093105;28;20134;-80
2022/01/01 07:14:55;;;;;;;68.60;22.77;;;10.70;99.90;;;;;;5110529;28;20437;-79
2022/01/01 07:17:21;;;;;;;73.15;20.92;;;10.70;99.90;;;;;;5076211;28;20099;-79
2022/01/01 07:19:47;;;;;;;67.85;20.95;;;10.70;99.90;;;;;;5093432;28;20038;-79
2022/01/01 07:22:12;;;;;;;72.60;21.75;;;10.70;99.90;;;;;;5076255;28;20123;-79
2022/01/01 07:24:39;;;;;;;65.97;20.15;;;10.70;99.90;;;;;;5110259;28;20047;-79
2022/01/01 07:27:05;;;;;;;73.70;21.70;;;10.70;99.90;;;;;;5076981;28;20356;-79
2022/01/01 07:29:31;;;;;;;74.20;21.67;;;10.70;99.90;;;;;;5092413;28;20040;-79
2022/01/01 07:31:57;;;;;;;77.38;21.50;;;10.70;99.90;;;;;;5059704;28;20043;-79
2022/01/01 07:34:23;;;;;;;72.45;21.45;;;10.70;99.90;;;;;;5075420;28;20079;-79
2022/01/01 07:36:49;;;;;;;69.32;22.63;;;10.70;99.90;;;;;;5076621;28;20101;-79
2022/01/01 07:39:15;;;;;;;66.50;20.73;;;10.80;99.90;;;;;;5092179;28;20036;-80
2022/01/01 07:41:42;;;;;;;70.70;23.38;;;10.80;99.90;;;;;;5110056;28;20065;-79
2022/01/01 07:44:09;;;;;;;68.22;22.27;;;10.80;99.90;;;;;;5092749;28;20071;-79
2022/01/01 07:46:35;;;;;;;73.43;23.38;;;10.90;99.90;;;;;;5075917;28;20043;-79
2022/01/01 07:49:03;;;;;;;74.00;24.42;;;10.80;99.90;;;;;;5092682;28;20040;-79
2022/01/01 07:51:29;;;;;;;79.85;24.15;;;11.70;99.90;;;;;;5092623;28;20377;-80
2022/01/01 07:53:55;;;;;;;76.70;24.25;;;10.90;99.90;;;;;;5093167;28;20084;-79
2022/01/01 07:56:20;;;;;;;73.47;22.20;;;11.10;99.90;;;;;;5109265;28;20108;-79
2022/01/01 07:58:46;;;;;;;72.20;22.90;;;11.00;99.90;;;;;;5110238;28;20282;-79
2022/01/01 08:01:12;;;;;;;71.68;22.77;;;11.00;99.90;;;;;;5109274;28;20046;-80
2022/01/01 08:03:37;;;;;;;67.78;22.10;;;11.00;99.90;;;;;;5109256;28;20053;-79
2022/01/01 08:06:03;;;;;;;71.18;24.45;;;11.10;99.90;;;;;;5075633;28;20046;-79
2022/01/01 08:08:29;;;;;;;63.50;22.13;;;11.10;99.90;;;;;;5074959;28;20140;-79
2022/01/01 08:10:54;;;;;;;62.67;21.73;;;11.10;99.90;;;;;;5075695;28;20127;-79
2022/01/01 08:13:24;;;;;;;68.05;23.15;;;11.10;99.90;;;;;;5092215;28;20042;-79
2022/01/01 08:15:52;;;;;;;70.07;23.25;;;11.10;99.90;;;;;;5076047;28;20094;-79
2022/01/01 08:18:18;;;;;;;57.15;23.25;;;11.20;99.90;;;;;;5074732;28;20047;-79
2022/01/01 08:20:45;;;;;;;71.75;22.52;;;11.10;99.90;;;;;;5092494;28;20495;-79
2022/01/01 08:23:12;;;;;;;69.60;24.10;;;11.30;99.90;;;;;;5091626;28;20088;-79
2022/01/01 08:25:37;;;;;;;;;;;11.30;99.90;;;;;;5075586;28;20055;-79
2022/01/01 08:28:05;;;;;;;66.32;24.15;;;11.30;99.90;;;;;;5092636;28;20014;-79
2022/01/01 08:30:31;;;;;;;76.57;25.30;;;11.40;99.90;;;;;;5091377;28;20040;-79
2022/01/01 08:33:01;;;;;;;73.60;24.83;;;11.40;99.90;;;;;;5075247;28;20405;-79
2022/01/01 08:35:29;;;;;;;77.38;24.92;;;11.40;99.90;;;;;;5075098;28;20047;-79
2022/01/01 08:37:54;;;;;;;72.43;23.80;;;11.40;99.90;;;;;;5092322;28;20070;-80
2022/01/01 08:40:20;;;;;;;75.60;23.95;;;11.50;99.90;;;;;;5074779;28;20043;-79
2022/01/01 08:42:46;;;;;;;69.28;24.35;;;11.50;99.90;;;;;;5108965;28;20047;-79
2022/01/01 08:45:12;;;;;;;66.10;25.15;;;11.50;99.90;;;;;;5091657;28;20073;-79
2022/01/01 08:47:37;;;;;;;78.28;25.10;;;11.50;99.90;;;;;;5075124;28;20070;-79
2022/01/01 08:50:04;;;;;;;66.13;24.77;;;11.60;99.90;;;;;;5108760;28;20040;-79
2022/01/01 08:52:30;;;;;;;69.07;25.05;;;11.60;99.90;;;;;;5074079;28;20168;-80
2022/01/01 08:54:56;;;;;;;65.50;24.35;;;11.60;99.90;;;;;;5091827;28;20545;-79
2022/01/01 08:57:22;;;;;;;64.75;24.63;;;11.60;99.90;;;;;;5058053;28;20039;-79
2022/01/01 08:59:48;;;;;;;68.60;24.00;;;11.60;99.90;;;;;;5075038;28;20047;-79
2022/01/01 09:02:14;;;;;;;62.03;24.42;;;11.80;99.90;;;;;;5091517;28;20093;-80
2022/01/01 09:04:40;;;;;;;57.53;22.75;;;12.00;99.90;;;;;;5108422;28;20052;-80
2022/01/01 09:07:06;;;;;;;56.85;21.85;;;11.70;99.90;;;;;;5091302;28;20184;-79
2022/01/01 09:09:32;;;;;;;59.85;22.70;;;11.70;99.90;;;;;;5074043;28;20126;-79
2022/01/01 09:11:57;;;;;;;66.60;23.33;;;11.70;99.90;;;;;;5091860;28;20155;-79
2022/01/01 09:14:23;;;;;;;66.68;25.10;;;11.80;99.90;;;;;;5108450;28;20067;-79
2022/01/01 09:16:49;;;;;;;52.20;22.33;;;11.80;99.90;;;;;;5091700;28;20051;-79
2022/01/01 09:19:15;;;;;;;54.22;22.30;;;11.80;99.90;;;;;;5092076;28;20051;-80
2022/01/01 09:21:41;;;;;;;50.97;22.77;;;11.90;99.90;;;;;;5108299;28;20032;-80
2022/01/01 09:24:07;;;;;;;53.63;23.05;;;12.00;99.90;;;;;;5091248;28;20564;-79
2022/01/01 09:26:33;;;;;;;53.28;23.52;;;11.90;99.90;;;;;;5090832;28;20035;-80
2022/01/01 09:28:58;;;;;;;50.50;21.58;;;12.10;99.90;;;;;;5074538;28;20036;-79
2022/01/01 09:31:24;;;;;;;50.40;23.08;;;12.20;99.90;;;;;;5091000;28;20036;-80
2022/01/01 09:33:50;;;;;;;51.60;23.15;;;12.30;99.90;;;;;;5074356;28;20043;-80
2022/01/01 09:36:17;;;;;;;53.35;20.75;;;12.30;99.90;;;;;;5108111;28;20047;-80
2022/01/01 09:38:44;;;;;;;49.00;22.00;;;12.30;99.90;;;;;;5074796;28;20435;-80
2022/01/01 09:41:12;;;;;;;44.35;19.75;;;12.30;99.90;;;;;;5091204;28;20043;-79
2022/01/01 09:43:38;;;;;;;40.90;19.23;;;12.20;99.90;;;;;;5090963;28;20552;-80
2022/01/01 09:46:04;;;;;;;48.33;21.58;;;12.30;99.90;;;;;;5074575;28;20506;-80
2022/01/01 09:48:31;;;;;;;43.80;19.88;;;12.30;99.90;;;;;;5090070;28;20036;-80
2022/01/01 09:51:00;;;;;;;40.33;17.63;;;12.30;99.90;;;;;;5074619;28;20471;-79
2022/01/01 09:53:27;;;;;;;36.55;16.98;;;12.30;99.90;;;;;;5090315;28;20189;-80
2022/01/01 09:55:55;;;;;;;31.25;14.50;;;12.30;99.90;;;;;;5074711;28;20440;-79
2022/01/01 09:58:25;;;;;;;30.65;14.02;;;12.40;99.90;;;;;;5073852;28;20081;-80
2022/01/01 10:00:52;;;;;;;30.15;14.50;;;12.50;99.90;;;;;;5090976;28;20043;-80
2022/01/01 10:03:27;;;;;;;33.47;15.23;;;12.50;99.90;;;;;;5090598;28;20044;-80
2022/01/01 10:05:57;;;;;;;30.38;13.00;;;12.60;99.90;;;;;;5074302;28;20500;-80
2022/01/01 10:08:24;;;;;;;34.38;13.80;;;12.70;99.90;;;;;;5073750;28;20048;-80
2022/01/01 10:10:51;;;;;;;23.10;11.07;;;12.50;99.90;;;;;;5090619;28;20047;-80
2022/01/01 10:13:17;;;;;;;30.58;10.98;;;12.60;99.90;;;;;;5090664;28;20047;-80
2022/01/01 10:15:43;;;;;;;25.45;11.50;;;12.60;99.90;;;;;;5090204;28;20077;-79
2022/01/01 10:18:08;;;;;;;27.77;11.95;;;12.70;99.90;;;;;;5090626;28;20120;-80
2022/01/01 10:20:43;;;;;;;27.88;12.60;;;12.60;99.90;;;;;;5091781;28;20109;-80
2022/01/01 10:23:15;;;;;;;28.98;12.50;;;12.60;99.90;;;;;;5077152;28;20492;-80
2022/01/01 10:28:26;;;;;;;25.88;11.80;;;12.70;99.90;;;;;;5096701;28;20036;-80
2022/01/01 10:30:56;;;;;;;25.30;11.85;;;12.60;99.90;;;;;;5077308;28;20039;-79
2022/01/01 10:33:23;;;;;;;27.35;11.75;;;12.70;99.90;;;;;;5094616;28;20472;-80
2022/01/01 10:35:50;;;;;;;25.67;10.35;;;12.60;99.90;;;;;;5094009;28;20043;-80
2022/01/01 10:38:27;;;;;;;23.02;11.48;;;12.70;99.90;;;;;;5111045;28;20039;-80
2022/01/01 10:41:10;;;;;;;29.23;11.98;;;12.70;99.90;;;;;;5094702;28;20047;-80
2022/01/01 10:43:44;;;;;;;26.85;11.32;;;12.60;99.90;;;;;;5094071;28;20051;-80
2022/01/01 10:46:14;;;;;;;30.63;12.95;;;12.50;99.90;;;;;;5094070;28;20031;-80
2022/01/01 10:48:53;;;;;;;27.10;12.02;;;12.50;99.90;;;;;;5094003;28;20395;-80
2022/01/01 10:51:19;;;;;;;29.90;13.45;;;12.50;99.90;;;;;;5077134;28;20065;-79
2022/01/01 10:53:45;;;;;;;25.65;12.73;;;12.50;99.90;;;;;;5093426;28;20036;-80
2022/01/01 10:56:20;;;;;;;28.88;13.75;;;12.50;99.90;;;;;;5093918;28;20050;-79
2022/01/01 10:59:01;;;;;;;33.25;14.18;;;12.50;99.90;;;;;;5093307;28;20154;-78
2022/01/01 11:01:27;;;;;;;25.55;11.68;;;12.50;99.90;;;;;;5093642;28;20040;-79
2022/01/01 11:03:55;;;;;;;25.67;12.77;;;12.60;99.90;;;;;;5111190;28;20051;-80
2022/01/01 11:06:21;;;;;;;25.52;12.00;;;12.60;99.90;;;;;;5093990;28;20040;-80
2022/01/01 11:08:47;;;;;;;23.58;11.98;;;12.70;99.90;;;;;;5093224;28;20104;-80
2022/01/01 11:11:15;;;;;;;27.23;12.23;;;12.70;99.90;;;;;;5093420;28;20429;-79
2022/01/01 11:13:42;;;;;;;24.38;12.00;;;12.60;99.90;;;;;;5093541;28;20099;-79
2022/01/01 11:16:09;;;;;;;27.40;12.55;;;12.70;99.90;;;;;;5094102;28;20044;-80
2022/01/01 11:18:36;;;;;;;29.33;11.52;;;12.60;99.90;;;;;;5076230;28;20130;-80
2022/01/01 11:21:04;;;;;;;25.83;11.40;;;12.60;99.90;;;;;;5077010;28;20031;-79
2022/01/01 11:23:34;;;;;;;28.55;11.85;;;12.60;99.90;;;;;;5093600;28;20380;-79
2022/01/01 11:26:01;;;;;;;26.00;11.40;;;12.50;99.90;;;;;;5076999;28;20466;-79
2022/01/01 11:28:27;;;;;;;28.73;11.45;;;12.50;99.90;;;;;;5076723;28;20095;-80
2022/01/01 11:31:07;;;;;;;22.88;10.32;;;12.50;99.90;;;;;;5077122;28;20506;-79
2022/01/01 11:33:55;;;;;;;29.45;10.52;;;12.60;99.90;;;;;;5077254;28;20483;-79
2022/01/01 11:36:24;;;;;;;26.98;10.73;;;12.70;99.90;;;;;;5093486;28;20047;-80
2022/01/01 11:38:52;;;;;;;21.92;10.63;;;12.70;99.90;;;;;;5077171;28;20060;-79
2022/01/01 11:41:18;;;;;;;18.83;9.57;;;12.70;99.90;;;;;;5093340;28;20039;-80
2022/01/01 11:43:53;;;;;;;17.58;9.13;;;12.80;99.90;;;;;;5092897;28;20093;-80
2022/01/01 11:46:30;;;;;;;22.67;10.00;;;12.70;99.90;;;;;;5076173;28;20071;-79
2022/01/01 11:48:59;;;;;;;21.73;9.40;;;12.80;99.90;;;;;;5075685;28;20031;-79
2022/01/01 11:51:29;;;;;;;23.88;10.07;;;12.80;99.90;;;;;;5076123;28;20043;-80
2022/01/01 11:54:07;;;;;;;18.15;8.88;;;12.80;99.90;;;;;;5092933;28;20096;-80
2022/01/01 11:56:56;;;;;;;19.92;9.40;;;12.80;99.90;;;;;;5092660;28;20357;-80
2022/01/01 11:59:25;;;;;;;23.58;8.40;;;12.90;99.90;;;;;;5093241;28;20499;-80
2022/01/01 12:01:53;;;;;;;17.98;8.27;;;12.80;99.90;;;;;;5092715;28;20491;-80
2022/01/01 12:04:32;;;;;;;16.67;7.03;;;12.90;99.90;;;;;;5092843;28;20484;-80
2022/01/01 12:07:17;;;;;;;19.13;6.57;;;12.80;99.90;;;;;;5093085;28;20043;-80
2022/01/01 12:10:06;;;;;;;16.80;6.85;;;12.90;99.90;;;;;;5075562;28;20074;-80
2022/01/01 12:12:41;;;;;;;14.18;5.97;;;13.00;99.90;;;;;;5092352;28;20352;-80
2022/01/01 12:15:09;;;;;;;15.48;7.15;;;13.00;99.90;;;;;;5093106;28;20192;-80
2022/01/01 12:18:01;;;;;;;13.70;5.82;;;12.90;99.90;;;;;;5092966;28;20430;-81
2022/01/01 12:20:32;;;;;;;12.88;5.97;;;12.90;99.90;;;;;;5092507;28;20044;-81
2022/01/01 12:23:02;;;;;;;14.25;5.72;;;13.00;99.90;;;;;;5075760;28;20104;-79
2022/01/01 12:25:30;;;;;;;15.82;5.82;;;13.00;99.90;;;;;;5071870;28;20440;-80
2022/01/01 12:28:02;;;;;;;13.27;5.95;;;13.00;99.90;;;;;;5089092;28;20594;-80
2022/01/01 12:30:34;;;;;;;15.88;6.25;;;12.90;99.90;;;;;;5071703;28;20122;-80
2022/01/01 12:33:03;;;;;;;11.80;4.95;;;12.90;99.90;;;;;;5088887;28;20110;-80
2022/01/01 12:35:44;;;;;;;12.23;5.63;;;12.90;99.90;;;;;;5088745;28;20039;-80